Time;durP1;ratioP1;P1;durP2;ratioP2;P2;SDS_P1;SDS_P2;PMS_P1;PMS_P2;Temp;Humidity;BMP_temperature;BMP_pressure;BME280_temperature;BME280_humidity;BME280_pressure;Samples;Min_cycle;Max_cycle;Signal;HPM_P1;HPM_P2
2022/07/23 00:00:22;;;;;;;10.57;6.40;;;13.80;99.90;;;;;;5044120;28;20027;-70
2022/07/23 00:02:49;;;;;;;9.43;6.68;;;13.80;99.90;;;;;;5053057;28;20021;-73
2022/07/23 00:05:17;;;;;;;11.40;8.18;;;13.80;99.90;;;;;;5041129;28;20500;-76
2022/07/23 00:07:44;;;;;;;10.48;6.47;;;13.90;99.90;;;;;;5054205;28;20028;-75
2022/07/23 00:10:11;;;;;;;9.93;6.25;;;13.90;99.90;;;;;;5044167;28;20025;-72
2022/07/23 00:12:39;;;;;;;8.32;5.78;;;14.00;99.90;;;;;;5045387;28;20111;-77
2022/07/23 00:15:08;;;;;;;9.05;5.85;;;14.10;99.90;;;;;;5040905;28;20032;-74
2022/07/23 00:17:35;;;;;;;7.88;5.30;;;14.20;99.90;;;;;;5052303;28;20028;-74
2022/07/23 00:20:03;;;;;;;7.90;5.55;;;14.20;99.90;;;;;;5043532;28;20029;-74
2022/07/23 00:22:33;;;;;;;10.07;5.28;;;14.30;99.90;;;;;;5032451;28;20034;-71
2022/07/23 00:25:01;;;;;;;10.15;4.88;;;14.20;99.90;;;;;;5041495;28;20040;-75
2022/07/23 00:27:29;;;;;;;6.07;4.50;;;14.30;99.90;;;;;;5036302;28;20123;-73
2022/07/23 00:29:56;;;;;;;8.82;4.70;;;14.30;99.90;;;;;;5042466;28;20128;-71
2022/07/23 00:32:23;;;;;;;9.80;3.70;;;14.40;99.90;;;;;;5036958;28;20032;-74
2022/07/23 00:34:50;;;;;;;9.20;3.83;;;14.30;99.90;;;;;;5046776;28;20027;-67
2022/07/23 00:37:18;;;;;;;5.90;3.67;;;14.20;99.90;;;;;;5045618;28;20086;-69
2022/07/23 00:39:45;;;;;;;10.63;3.65;;;14.20;99.90;;;;;;5039496;28;20059;-69
2022/07/23 00:42:12;;;;;;;9.23;4.10;;;14.20;99.90;;;;;;5037757;28;20611;-69
2022/07/23 00:44:40;;;;;;;8.38;3.88;;;14.20;99.90;;;;;;5042038;28;20730;-69
2022/07/23 00:47:07;;;;;;;9.25;4.28;;;14.10;99.90;;;;;;5045018;28;20466;-69
2022/07/23 00:49:35;;;;;;;7.38;4.80;;;14.10;99.90;;;;;;5040949;28;20694;-70
2022/07/23 00:52:03;;;;;;;9.50;3.88;;;14.10;99.90;;;;;;5038447;28;20059;-79
2022/07/23 00:54:31;;;;;;;8.00;4.55;;;14.20;99.90;;;;;;5053971;28;20033;-75
2022/07/23 00:56:58;;;;;;;6.97;4.65;;;14.20;99.90;;;;;;5041585;28;20496;-77
2022/07/23 00:59:25;;;;;;;9.20;4.78;;;14.20;99.90;;;;;;5039542;28;20119;-80
2022/07/23 01:01:53;;;;;;;9.77;5.22;;;14.30;99.90;;;;;;5028868;28;20337;-74
2022/07/23 01:04:20;;;;;;;9.55;4.47;;;14.30;99.90;;;;;;5038205;28;20099;-79
2022/07/23 01:06:47;;;;;;;7.03;4.97;;;14.40;99.90;;;;;;5039827;28;20035;-79
2022/07/23 01:09:15;;;;;;;9.38;5.13;;;14.50;99.90;;;;;;5035289;28;20029;-77
2022/07/23 01:11:43;;;;;;;10.90;5.53;;;14.60;99.90;;;;;;5034902;28;20526;-79
2022/07/23 01:14:15;;;;;;;6.93;4.20;;;14.60;99.90;;;;;;5052822;28;20036;-71
2022/07/23 01:16:43;;;;;;;7.63;4.53;;;14.60;99.90;;;;;;5028150;28;20033;-74
2022/07/23 01:19:12;;;;;;;7.88;4.15;;;14.60;99.90;;;;;;5039305;28;20037;-77
2022/07/23 01:21:42;;;;;;;8.02;4.43;;;14.70;99.90;;;;;;5040621;28;20405;-72
2022/07/23 01:24:11;;;;;;;9.40;5.15;;;14.70;99.90;;;;;;5054319;28;20495;-78
2022/07/23 01:26:39;;;;;;;7.25;4.68;;;14.80;99.90;;;;;;5044214;28;20025;-75
2022/07/23 01:29:07;;;;;;;8.15;5.68;;;14.80;99.90;;;;;;5039227;28;20032;-78
2022/07/23 01:31:34;;;;;;;9.73;4.72;;;14.80;99.90;;;;;;5041052;28;20021;-75
2022/07/23 01:34:02;;;;;;;9.15;5.40;;;14.90;99.90;;;;;;5041580;28;20044;-74
2022/07/23 01:36:29;;;;;;;7.60;4.35;;;15.00;99.90;;;;;;5036548;28;20071;-74
2022/07/23 01:38:57;;;;;;;7.78;4.78;;;15.00;99.90;;;;;;5040143;28;20029;-75
2022/07/23 01:41:24;;;;;;;8.40;4.15;;;15.10;99.90;;;;;;5038668;28;20021;-75
2022/07/23 01:43:52;;;;;;;10.05;4.78;;;15.20;99.90;;;;;;5039602;28;20041;-74
2022/07/23 01:46:19;;;;;;;9.63;4.28;;;15.20;99.90;;;;;;5038098;28;20033;-77
2022/07/23 01:48:46;;;;;;;7.95;4.00;;;15.20;99.90;;;;;;5038126;28;20062;-79
2022/07/23 01:51:14;;;;;;;7.30;4.85;;;15.30;99.90;;;;;;5054078;28;20037;-74
2022/07/23 01:53:42;;;;;;;8.52;5.30;;;15.40;99.90;;;;;;5023203;28;20381;-75
2022/07/23 01:56:10;;;;;;;6.38;3.97;;;15.50;99.90;;;;;;5031112;28;20025;-76
2022/07/23 01:58:37;;;;;;;7.78;4.10;;;15.70;99.90;;;;;;5039954;28;20123;-76
2022/07/23 02:01:05;;;;;;;5.85;3.13;;;15.90;99.90;;;;;;5046067;28;20025;-77
2022/07/23 02:03:32;;;;;;;5.90;2.88;;;16.10;99.90;;;;;;5039281;28;20032;-77
2022/07/23 02:05:59;;;;;;;5.90;3.40;;;16.10;99.90;;;;;;5041120;28;20013;-76
2022/07/23 02:08:27;;;;;;;4.82;2.95;;;16.40;99.90;;;;;;5041266;28;20029;-76
2022/07/23 02:10:54;;;;;;;5.53;3.53;;;16.60;99.90;;;;;;5039641;28;20021;-76
2022/07/23 02:13:21;;;;;;;3.67;2.50;;;16.60;99.90;;;;;;5040508;28;20097;-77
2022/07/23 02:15:49;;;;;;;8.00;3.15;;;16.70;99.90;;;;;;5036803;28;20082;-76
2022/07/23 02:18:16;;;;;;;5.82;1.83;;;16.60;99.90;;;;;;5040797;28;20535;-77
2022/07/23 02:20:44;;;;;;;5.95;1.50;;;16.70;99.90;;;;;;5037394;28;20024;-81
2022/07/23 02:23:11;;;;;;;6.93;2.63;;;16.70;99.90;;;;;;5039702;28;20672;-76
2022/07/23 02:25:39;;;;;;;8.32;2.25;;;16.50;99.90;;;;;;5037637;28;20489;-78
2022/07/23 02:28:07;;;;;;;4.53;3.13;;;16.40;99.90;;;;;;5048541;28;20025;-75
2022/07/23 02:30:34;;;;;;;6.00;1.98;;;16.20;99.90;;;;;;5072242;28;20115;-78
2022/07/23 02:33:01;;;;;;;5.35;1.90;;;16.10;99.90;;;;;;5033221;28;20037;-78
2022/07/23 02:35:28;;;;;;;6.97;2.47;;;16.10;99.90;;;;;;5041704;28;20052;-77
2022/07/23 02:37:56;;;;;;;4.68;1.80;;;16.10;99.90;;;;;;5039373;28;20022;-77
2022/07/23 02:40:23;;;;;;;6.82;1.80;;;16.00;99.90;;;;;;5042381;28;20021;-78
2022/07/23 02:42:50;;;;;;;5.95;1.70;;;16.10;99.90;;;;;;5039949;28;20037;-79
2022/07/23 02:45:18;;;;;;;8.00;2.65;;;16.10;99.90;;;;;;5042561;28;20027;-76
2022/07/23 02:47:45;;;;;;;6.30;2.30;;;16.10;99.90;;;;;;5040817;28;20055;-76
2022/07/23 02:50:12;;;;;;;5.55;2.15;;;16.00;99.90;;;;;;5032888;28;20387;-75
2022/07/23 02:52:40;;;;;;;3.90;1.10;;;15.90;99.90;;;;;;5038395;28;20017;-81
2022/07/23 02:55:08;;;;;;;3.95;1.27;;;15.80;99.90;;;;;;5039594;28;20036;-77
2022/07/23 02:57:35;;;;;;;6.40;1.20;;;15.50;99.90;;;;;;5035458;28;20072;-74
2022/07/23 03:00:03;;;;;;;2.90;1.17;;;15.40;99.90;;;;;;5037052;28;20516;-79
2022/07/23 03:02:31;;;;;;;2.90;0.90;;;15.30;99.90;;;;;;5043872;28;20496;-79
2022/07/23 03:04:58;;;;;;;4.57;1.45;;;15.30;99.90;;;;;;5038971;28;20136;-83
2022/07/23 03:07:26;;;;;;;1.73;0.85;;;15.20;99.90;;;;;;5039907;28;20086;-80
2022/07/23 03:09:53;;;;;;;5.53;1.35;;;15.30;99.90;;;;;;5044143;28;20021;-80
2022/07/23 03:12:20;;;;;;;5.45;1.48;;;15.20;99.90;;;;;;5051923;28;20017;-80
2022/07/23 03:14:48;;;;;;;3.53;1.15;;;15.50;99.90;;;;;;5039272;28;20021;-79
2022/07/23 03:17:15;;;;;;;4.70;1.35;;;15.50;99.90;;;;;;5039552;28;20055;-80
2022/07/23 03:19:43;;;;;;;3.53;1.17;;;15.60;99.90;;;;;;5037087;28;20021;-81
2022/07/23 03:22:10;;;;;;;4.60;1.38;;;15.60;99.90;;;;;;5041020;28;20025;-80
2022/07/23 03:24:56;;;;;;;6.65;1.65;;;15.90;99.90;;;;;;5044541;28;20033;-79
2022/07/23 03:27:25;;;;;;;2.75;1.52;;;16.40;99.90;;;;;;5040759;28;20407;-79
2022/07/23 03:29:54;;;;;;;3.90;1.35;;;17.40;99.90;;;;;;5037774;28;20028;-79
2022/07/23 03:32:22;;;;;;;3.97;1.65;;;18.20;99.90;;;;;;5039986;28;20108;-82
2022/07/23 03:34:50;;;;;;;1.50;0.82;;;18.70;99.90;;;;;;5038522;28;20032;-80
2022/07/23 03:37:19;;;;;;;2.55;0.80;;;18.70;99.90;;;;;;5038331;28;20019;-80
2022/07/23 03:39:46;;;;;;;1.55;0.75;;;18.70;99.90;;;;;;5036123;28;20434;-79
2022/07/23 03:42:13;;;;;;;1.52;0.90;;;18.80;99.90;;;;;;5036993;28;20098;-78
2022/07/23 03:44:41;;;;;;;2.42;0.70;;;19.20;99.90;;;;;;5037322;28;20036;-79
2022/07/23 03:47:08;;;;;;;2.45;0.90;;;20.00;99.90;;;;;;5037241;28;20076;-79
2022/07/23 03:49:35;;;;;;;3.60;1.20;;;20.80;99.90;;;;;;5038910;28;20084;-81
2022/07/23 03:52:03;;;;;;;1.92;0.77;;;21.20;99.90;;;;;;5036866;28;20031;-79
2022/07/23 03:54:30;;;;;;;2.00;0.80;;;21.50;99.90;;;;;;5055139;28;20028;-79
2022/07/23 03:56:58;;;;;;;1.98;0.60;;;21.80;99.90;;;;;;5061270;28;20559;-81
2022/07/23 03:59:25;;;;;;;2.72;0.60;;;21.90;99.90;;;;;;5037309;28;20082;-79
2022/07/23 04:01:53;;;;;;;1.30;0.57;;;21.90;99.90;;;;;;5034591;28;20051;-79
2022/07/23 04:04:21;;;;;;;1.65;0.60;;;21.40;99.90;;;;;;5039016;28;20533;-79
2022/07/23 04:06:48;;;;;;;1.45;0.80;;;20.80;99.90;;;;;;5038261;28;20020;-80
2022/07/23 04:09:15;;;;;;;1.23;0.68;;;20.10;99.90;;;;;;5037846;28;20021;-80
2022/07/23 04:11:43;;;;;;;1.50;0.90;;;19.40;99.90;;;;;;5042042;28;20052;-83
2022/07/23 04:14:10;;;;;;;1.83;0.70;;;18.80;99.90;;;;;;5033347;28;20045;-82
2022/07/23 04:16:40;;;;;;;2.80;0.82;;;18.80;99.90;;;;;;5038666;28;20043;-82
2022/07/23 04:19:08;;;;;;;6.50;1.58;;;19.20;99.90;;;;;;5035650;28;20108;-77
2022/07/23 04:21:35;;;;;;;6.55;1.35;;;19.30;99.90;;;;;;5039850;28;20490;-76
2022/07/23 04:24:03;;;;;;;4.10;1.08;;;19.10;99.90;;;;;;5036094;28;20071;-78
2022/07/23 04:26:30;;;;;;;6.25;1.25;;;18.40;99.90;;;;;;5038707;28;20090;-76
2022/07/23 04:28:57;;;;;;;3.47;1.42;;;17.90;99.90;;;;;;5039439;28;20021;-77
2022/07/23 04:31:25;;;;;;;4.63;0.73;;;17.60;99.90;;;;;;5038879;28;20402;-78
2022/07/23 04:33:52;;;;;;;2.22;0.70;;;17.40;99.90;;;;;;5037535;28;20048;-77
2022/07/23 04:36:19;;;;;;;2.60;1.08;;;17.20;99.90;;;;;;5037982;28;20191;-77
2022/07/23 04:38:47;;;;;;;3.75;1.42;;;17.00;99.90;;;;;;5037740;28;20025;-77
2022/07/23 04:41:14;;;;;;;2.42;1.58;;;16.80;99.90;;;;;;5035558;28;20025;-76
2022/07/23 04:43:41;;;;;;;4.97;2.33;;;16.70;99.90;;;;;;5032470;28;20047;-77
2022/07/23 04:46:10;;;;;;;3.60;1.33;;;16.60;99.90;;;;;;5037092;28;20113;-77
2022/07/23 04:48:38;;;;;;;3.50;2.13;;;16.60;99.90;;;;;;5038348;28;20024;-76
2022/07/23 04:51:05;;;;;;;2.08;0.93;;;16.60;99.90;;;;;;5035361;28;20028;-75
2022/07/23 04:53:33;;;;;;;2.95;1.15;;;16.50;99.90;;;;;;5038491;28;20704;-81
2022/07/23 04:56:01;;;;;;;2.03;0.80;;;16.40;99.90;;;;;;5035627;28;20102;-75
2022/07/23 04:58:28;;;;;;;2.22;0.93;;;16.40;99.90;;;;;;5037066;28;20029;-76
2022/07/23 05:00:57;;;;;;;1.52;0.80;;;16.40;99.90;;;;;;5037261;28;20028;-78
2022/07/23 05:03:25;;;;;;;1.60;0.73;;;16.30;99.90;;;;;;5036545;28;20713;-75
2022/07/23 05:05:52;;;;;;;2.33;0.60;;;16.30;99.90;;;;;;5036928;28;20565;-74
2022/07/23 05:08:19;;;;;;;1.95;1.05;;;16.40;99.90;;;;;;5035612;28;20029;-75
2022/07/23 05:10:47;;;;;;;2.08;0.90;;;16.50;99.90;;;;;;5037547;28;20025;-75
2022/07/23 05:13:18;;;;;;;1.90;0.93;;;16.70;99.90;;;;;;5035145;28;20044;-76
2022/07/23 05:15:46;;;;;;;3.97;1.67;;;16.80;99.90;;;;;;5038656;28;20032;-76
2022/07/23 05:18:13;;;;;;;2.58;0.85;;;16.80;99.90;;;;;;5036975;28;20029;-77
2022/07/23 05:20:41;;;;;;;1.98;1.00;;;17.00;99.90;;;;;;5039502;28;20032;-77
2022/07/23 05:23:08;;;;;;;4.55;1.00;;;17.20;99.90;;;;;;5038775;28;20021;-77
2022/07/23 05:25:35;;;;;;;3.03;1.35;;;17.30;99.90;;;;;;5044432;28;20025;-76
2022/07/23 05:28:03;;;;;;;1.77;1.33;;;17.30;99.90;;;;;;5075671;28;20028;-77
2022/07/23 05:30:30;;;;;;;2.33;0.90;;;17.40;99.90;;;;;;5043350;28;20036;-77
2022/07/23 05:32:58;;;;;;;1.48;1.02;;;17.30;99.90;;;;;;5053513;28;20067;-77
2022/07/23 05:35:25;;;;;;;3.33;1.08;;;17.20;99.90;;;;;;5062161;28;20039;-77
2022/07/23 05:37:52;;;;;;;4.35;1.20;;;17.00;99.90;;;;;;5062952;28;20496;-77
2022/07/23 05:40:20;;;;;;;3.97;1.08;;;17.00;99.90;;;;;;5063481;28;20020;-76
2022/07/23 05:42:47;;;;;;;2.00;1.00;;;16.90;99.90;;;;;;5055260;28;20120;-74
2022/07/23 05:45:14;;;;;;;2.17;1.08;;;16.80;99.90;;;;;;5042834;28;20028;-76
2022/07/23 05:47:50;;;;;;;1.67;0.90;;;16.80;99.90;;;;;;5043478;28;20076;-75
2022/07/23 05:50:17;;;;;;;3.58;1.50;;;16.70;99.90;;;;;;5043153;28;20542;-76
2022/07/23 05:52:45;;;;;;;3.97;1.92;;;16.70;99.90;;;;;;5041975;28;20033;-76
2022/07/23 05:55:12;;;;;;;4.18;1.88;;;16.60;99.90;;;;;;5034836;28;20512;-76
2022/07/23 05:57:40;;;;;;;3.35;1.60;;;16.50;99.90;;;;;;5043140;28;20029;-76
2022/07/23 06:00:10;;;;;;;6.20;2.22;;;16.50;99.90;;;;;;5051426;28;20035;-74
2022/07/23 06:02:39;;;;;;;4.25;1.30;;;16.50;99.90;;;;;;5049289;28;20025;-77
2022/07/23 06:05:07;;;;;;;3.38;2.30;;;16.50;99.90;;;;;;5075349;28;20017;-75
2022/07/23 06:07:35;;;;;;;4.60;2.80;;;16.50;99.90;;;;;;5074989;28;20033;-75
2022/07/23 06:10:02;;;;;;;5.43;3.63;;;16.40;99.90;;;;;;5042899;28;20028;-75
2022/07/23 06:12:29;;;;;;;5.32;3.15;;;16.40;99.90;;;;;;5045198;28;20068;-79
2022/07/23 06:14:57;;;;;;;3.92;2.55;;;16.30;99.90;;;;;;5042791;28;20541;-79
2022/07/23 06:17:24;;;;;;;4.47;2.58;;;16.20;99.90;;;;;;5039997;28;20087;-80
2022/07/23 06:19:51;;;;;;;7.57;2.15;;;16.10;99.90;;;;;;5041283;28;20079;-79
2022/07/23 06:22:19;;;;;;;4.78;1.80;;;16.10;99.90;;;;;;5040589;28;20029;-77
2022/07/23 06:24:46;;;;;;;4.93;1.90;;;16.00;99.90;;;;;;5040840;28;20098;-76
2022/07/23 06:27:14;;;;;;;6.75;2.65;;;16.00;99.90;;;;;;5048070;28;20103;-76
2022/07/23 06:29:42;;;;;;;4.63;2.58;;;15.90;99.90;;;;;;5063247;28;20028;-75
2022/07/23 06:32:09;;;;;;;4.47;2.22;;;15.90;99.90;;;;;;5040429;28;20025;-76
2022/07/23 06:34:36;;;;;;;8.65;3.60;;;15.90;99.90;;;;;;5039022;28;20079;-78
2022/07/23 06:37:04;;;;;;;5.75;2.47;;;15.90;99.90;;;;;;5041518;28;20481;-76
2022/07/23 06:39:31;;;;;;;5.60;3.08;;;15.80;99.90;;;;;;5040708;28;20731;-75
2022/07/23 06:41:59;;;;;;;6.65;3.83;;;15.70;99.90;;;;;;5041003;28;20052;-76
2022/07/23 06:44:26;;;;;;;3.83;2.97;;;15.70;99.90;;;;;;5038696;28;20035;-76
2022/07/23 06:46:53;;;;;;;7.35;3.33;;;15.60;99.90;;;;;;5040758;28;20021;-80
2022/07/23 06:49:20;;;;;;;4.80;3.45;;;15.50;99.90;;;;;;5041311;28;20044;-79
2022/07/23 06:51:48;;;;;;;4.75;3.70;;;15.50;99.90;;;;;;5040571;28;20882;-77
2022/07/23 06:54:15;;;;;;;5.88;3.08;;;15.40;99.90;;;;;;5045128;28;20043;-78
2022/07/23 06:56:43;;;;;;;9.30;5.00;;;15.30;99.90;;;;;;5039589;28;20508;-76
2022/07/23 06:59:11;;;;;;;6.80;4.57;;;15.30;99.90;;;;;;5041604;28;20029;-77
2022/07/23 07:01:38;;;;;;;7.70;4.30;;;15.20;99.90;;;;;;5039262;28;20025;-76
2022/07/23 07:04:06;;;;;;;5.30;3.42;;;15.10;99.90;;;;;;5039792;28;20537;-76
2022/07/23 07:06:33;;;;;;;6.43;3.30;;;15.10;99.90;;;;;;5039875;28;20112;-78
2022/07/23 07:09:00;;;;;;;8.93;3.63;;;15.00;99.90;;;;;;5041351;28;20024;-79
2022/07/23 07:11:27;;;;;;;7.43;4.50;;;14.90;99.90;;;;;;5041015;28;20070;-75
2022/07/23 07:13:55;;;;;;;6.55;3.65;;;14.90;99.90;;;;;;5038588;28;20094;-75
2022/07/23 07:16:22;;;;;;;8.57;5.22;;;14.80;99.90;;;;;;5039200;28;20119;-76
2022/07/23 07:18:50;;;;;;;7.75;5.05;;;14.80;99.90;;;;;;5034647;28;20385;-77
2022/07/23 07:21:17;;;;;;;9.57;4.70;;;14.70;99.90;;;;;;5040706;28;20097;-81
2022/07/23 07:23:45;;;;;;;12.85;4.85;;;14.70;99.90;;;;;;5038152;28;20520;-74
2022/07/23 07:26:15;;;;;;;5.78;3.50;;;14.60;99.90;;;;;;5039625;28;20044;-76
2022/07/23 07:28:42;;;;;;;10.27;4.20;;;14.50;99.90;;;;;;5038038;28;20032;-76
2022/07/23 07:31:09;;;;;;;7.55;3.50;;;14.50;99.90;;;;;;5039163;28;20474;-75
2022/07/23 07:33:40;;;;;;;7.22;4.63;;;14.40;99.90;;;;;;5039048;28;20478;-76
2022/07/23 07:36:08;;;;;;;9.82;4.80;;;14.40;99.90;;;;;;5039642;28;20029;-76
2022/07/23 07:38:35;;;;;;;8.18;4.20;;;14.30;99.90;;;;;;5037834;28;20021;-77
2022/07/23 07:41:02;;;;;;;6.63;4.22;;;14.30;99.90;;;;;;5031672;28;20374;-75
2022/07/23 07:43:30;;;;;;;9.00;4.30;;;14.30;99.90;;;;;;5038348;28;20128;-75
2022/07/23 07:45:57;;;;;;;7.72;4.50;;;14.20;99.90;;;;;;5040348;28;20026;-75
2022/07/23 07:48:25;;;;;;;10.55;5.20;;;14.10;99.90;;;;;;5037243;28;20056;-76
2022/07/23 07:50:52;;;;;;;9.77;4.35;;;14.10;99.90;;;;;;5037975;28;20032;-74
2022/07/23 07:53:23;;;;;;;9.48;4.70;;;14.10;99.90;;;;;;5040530;28;20425;-74
2022/07/23 07:55:50;;;;;;;8.05;4.57;;;14.10;99.90;;;;;;5036043;28;20029;-76
2022/07/23 07:58:17;;;;;;;5.88;4.20;;;14.00;99.90;;;;;;5041568;28;20056;-75
2022/07/23 08:00:45;;;;;;;11.40;4.63;;;14.00;99.90;;;;;;5039960;28;20071;-75
2022/07/23 08:03:12;;;;;;;9.10;4.88;;;14.00;99.90;;;;;;5037237;28;20017;-77
2022/07/23 08:05:40;;;;;;;9.57;5.63;;;14.00;99.90;;;;;;5038101;28;20025;-76
2022/07/23 08:08:09;;;;;;;8.75;6.07;;;14.00;99.90;;;;;;5037636;28;20056;-80
2022/07/23 08:10:36;;;;;;;14.10;7.00;;;13.90;99.90;;;;;;5037001;28;20078;-80
2022/07/23 08:13:04;;;;;;;8.23;5.90;;;13.90;99.90;;;;;;5034315;28;20033;-76
2022/07/23 08:15:32;;;;;;;13.32;7.55;;;14.00;99.90;;;;;;5035804;28;20102;-74
2022/07/23 08:18:00;;;;;;;12.43;7.07;;;13.90;99.90;;;;;;5034507;28;20058;-74
2022/07/23 08:20:27;;;;;;;13.38;8.85;;;13.80;99.90;;;;;;5037070;28;20033;-77
2022/07/23 08:22:57;;;;;;;12.52;7.72;;;13.80;99.90;;;;;;5035655;28;20556;-74
2022/07/23 08:25:33;;;;;;;13.57;8.15;;;13.80;99.90;;;;;;5033506;28;20470;-74
2022/07/23 08:28:03;;;;;;;12.90;8.02;;;13.70;99.90;;;;;;5035434;28;20033;-75
2022/07/23 08:30:31;;;;;;;11.48;7.95;;;13.70;99.90;;;;;;5036196;28;20095;-76
2022/07/23 08:33:15;;;;;;;12.65;8.55;;;13.70;99.90;;;;;;5037723;28;20033;-75
2022/07/23 08:35:46;;;;;;;14.88;9.27;;;13.70;99.90;;;;;;5039767;28;20029;-75
2022/07/23 08:38:15;;;;;;;15.55;10.50;;;13.50;99.90;;;;;;5033660;28;20059;-76
2022/07/23 08:40:49;;;;;;;17.60;12.15;;;13.70;99.90;;;;;;5039087;28;20025;-76
2022/07/23 08:43:20;;;;;;;14.45;10.13;;;13.70;99.90;;;;;;5037462;28;20049;-75
2022/07/23 08:45:49;;;;;;;14.20;10.70;;;13.60;99.90;;;;;;5036245;28;20731;-76
2022/07/23 08:48:24;;;;;;;14.18;11.57;;;13.60;99.90;;;;;;5042515;28;20085;-78
2022/07/23 08:50:57;;;;;;;12.80;9.27;;;13.60;99.90;;;;;;5043401;28;20135;-79
2022/07/23 08:53:26;;;;;;;11.05;8.80;;;13.60;99.90;;;;;;5037338;28;20027;-78
2022/07/23 08:55:56;;;;;;;13.38;8.65;;;13.60;99.90;;;;;;5038783;28;20017;-78
2022/07/23 08:58:24;;;;;;;10.07;8.35;;;13.50;99.90;;;;;;5035364;28;20052;-77
2022/07/23 09:00:52;;;;;;;14.07;8.98;;;13.40;99.90;;;;;;5039331;28;20021;-76
2022/07/23 09:03:22;;;;;;;14.20;8.75;;;13.50;99.90;;;;;;5037921;28;20504;-83
2022/07/23 09:05:55;;;;;;;10.75;9.07;;;13.40;99.90;;;;;;5037811;28;20086;-77
2022/07/23 09:08:25;;;;;;;12.20;8.60;;;13.30;99.90;;;;;;5037215;28;20036;-77
2022/07/23 09:10:58;;;;;;;12.90;9.10;;;13.30;99.90;;;;;;5038382;28;20037;-75
2022/07/23 09:13:30;;;;;;;11.65;9.48;;;13.20;99.90;;;;;;5036375;28;20033;-76
2022/07/23 09:16:10;;;;;;;11.90;8.37;;;13.30;99.90;;;;;;5036524;28;20044;-78
2022/07/23 09:19:00;;;;;;;16.27;10.25;;;13.30;99.90;;;;;;5037461;28;20501;-76
2022/07/23 09:21:29;;;;;;;13.20;11.80;;;13.20;99.90;;;;;;5036576;28;20021;-78
2022/07/23 09:24:03;;;;;;;19.45;11.32;;;13.10;99.90;;;;;;5037176;28;20089;-79
2022/07/23 09:26:37;;;;;;;14.95;12.27;;;13.10;99.90;;;;;;5036189;28;20096;-77
2022/07/23 09:29:27;;;;;;;17.65;11.75;;;13.00;99.90;;;;;;5035330;28;20033;-77
2022/07/23 09:32:05;;;;;;;15.52;11.32;;;13.10;99.90;;;;;;5036455;28;20021;-76
2022/07/23 09:34:40;;;;;;;16.80;12.65;;;13.10;99.90;;;;;;5036717;28;20037;-79
2022/07/23 09:37:17;;;;;;;20.40;15.00;;;13.00;99.90;;;;;;5037142;28;20021;-76
2022/07/23 09:39:48;;;;;;;20.10;15.18;;;13.00;99.90;;;;;;5036425;28;20074;-78
2022/07/23 09:42:20;;;;;;;18.85;13.48;;;12.90;99.90;;;;;;5037823;28;20037;-77
2022/07/23 09:44:49;;;;;;;;;;;13.00;99.90;;;;;;5042274;28;20024;-80
2022/07/23 09:47:17;;;;;;;16.50;14.60;;;12.90;99.90;;;;;;5039334;28;19913;-79
2022/07/23 09:50:08;;;;;;;17.92;14.63;;;12.90;99.90;;;;;;5035057;28;20025;-79
2022/07/23 09:52:48;;;;;;;18.38;15.25;;;12.90;99.90;;;;;;5034272;28;20091;-80
2022/07/23 09:55:18;;;;;;;22.13;16.88;;;12.90;99.90;;;;;;5037857;28;20053;-76
2022/07/23 09:57:56;;;;;;;18.58;15.48;;;12.90;99.90;;;;;;5038363;28;20021;-76
2022/07/23 10:00:24;;;;;;;15.98;13.80;;;12.80;99.90;;;;;;5035848;28;20029;-75
2022/07/23 10:02:53;;;;;;;17.52;13.93;;;12.80;99.90;;;;;;5037504;28;20040;-76
2022/07/23 10:05:21;;;;;;;23.48;18.40;;;12.80;99.90;;;;;;5034651;28;20398;-77
2022/07/23 10:07:51;;;;;;;23.02;17.35;;;12.70;99.90;;;;;;5038644;28;20385;-75
2022/07/23 10:10:18;;;;;;;16.20;13.60;;;12.70;99.90;;;;;;5039002;28;20025;-76
2022/07/23 10:15:14;;;;;;;17.20;13.70;;;12.60;99.90;;;;;;5042764;28;20112;-79
2022/07/23 10:17:41;;;;;;;20.05;14.60;;;12.60;99.90;;;;;;5042193;28;20393;-76
2022/07/23 10:20:09;;;;;;;24.25;15.65;;;12.60;99.90;;;;;;5049685;28;20036;-78
2022/07/23 10:22:58;;;;;;;23.20;17.15;;;12.50;99.90;;;;;;5041115;28;20039;-78
2022/07/23 10:25:34;;;;;;;19.60;15.70;;;12.50;99.90;;;;;;5073439;28;20469;-77
2022/07/23 10:28:07;;;;;;;18.83;16.17;;;12.50;99.90;;;;;;5055677;28;20484;-78
2022/07/23 10:30:48;;;;;;;19.25;14.90;;;12.40;99.90;;;;;;5048186;28;20020;-75
2022/07/23 10:33:56;;;;;;;20.48;15.73;;;12.50;99.90;;;;;;5040194;28;20029;-76
2022/07/23 10:36:40;;;;;;;17.90;13.50;;;12.40;99.90;;;;;;5035138;28;20353;-75
2022/07/23 10:39:37;;;;;;;16.35;14.63;;;12.30;99.90;;;;;;5045600;28;20142;-77
2022/07/23 10:42:15;;;;;;;20.30;14.32;;;12.30;99.90;;;;;;5030361;28;20371;-77
2022/07/23 10:44:45;;;;;;;17.90;15.32;;;12.20;99.90;;;;;;5040575;28;20023;-76
2022/07/23 10:49:49;;;;;;;19.45;15.10;;;12.20;99.90;;;;;;5041935;28;20028;-78
2022/07/23 10:52:25;;;;;;;17.65;15.38;;;12.10;99.90;;;;;;5041929;28;20028;-76
2022/07/23 10:55:16;;;;;;;20.75;17.45;;;12.10;99.90;;;;;;5041123;28;20029;-75
2022/07/23 10:57:51;;;;;;;22.13;18.83;;;12.10;99.90;;;;;;5042782;28;20021;-78
2022/07/23 11:00:23;;;;;;;22.92;18.48;;;12.10;99.90;;;;;;5042832;28;20104;-77
2022/07/23 11:03:01;;;;;;;20.48;18.33;;;12.10;99.90;;;;;;5042123;28;20052;-76
2022/07/23 11:05:51;;;;;;;21.92;19.27;;;12.00;99.90;;;;;;5040485;28;20017;-78
2022/07/23 11:08:22;;;;;;;22.90;20.02;;;12.00;99.90;;;;;;5041110;28;20560;-79
2022/07/23 11:11:02;;;;;;;23.38;20.13;;;12.10;99.90;;;;;;5040825;28;20489;-79
2022/07/23 11:13:49;;;;;;;25.58;22.70;;;12.10;99.90;;;;;;5056880;28;20519;-79
2022/07/23 11:16:19;;;;;;;29.77;23.52;;;12.10;99.90;;;;;;5045761;28;20489;-79
2022/07/23 11:18:49;;;;;;;24.38;21.75;;;12.10;99.90;;;;;;5040167;28;20032;-77
2022/07/23 11:21:31;;;;;;;24.75;22.20;;;12.10;99.90;;;;;;5042563;28;20025;-79
2022/07/23 11:24:06;;;;;;;23.13;20.73;;;12.00;99.90;;;;;;5040816;28;20048;-80
2022/07/23 11:26:49;;;;;;;21.08;18.25;;;12.00;99.90;;;;;;5037910;28;20386;-79
2022/07/23 11:29:28;;;;;;;23.08;20.65;;;12.00;99.90;;;;;;5035295;28;20595;-78
2022/07/23 11:32:00;;;;;;;24.08;20.45;;;12.10;99.90;;;;;;5036437;28;20036;-79
2022/07/23 11:34:37;;;;;;;25.42;21.02;;;12.10;99.90;;;;;;5035792;28;20079;-79
2022/07/23 11:37:06;;;;;;;23.65;21.17;;;12.10;99.90;;;;;;5040361;28;20385;-76
2022/07/23 11:39:34;;;;;;;28.58;22.55;;;12.10;99.90;;;;;;5037483;28;20018;-75
2022/07/23 11:42:07;;;;;;;23.90;21.38;;;12.20;99.90;;;;;;5039196;28;20136;-76
2022/07/23 11:44:35;;;;;;;;;;;12.20;99.90;;;;;;5038834;28;20159;-77
2022/07/23 11:47:06;;;;;;;24.33;21.27;;;12.20;99.90;;;;;;5037453;28;19909;-75
2022/07/23 11:49:33;;;;;;;25.42;22.70;;;12.30;99.90;;;;;;5035680;28;20106;-74
2022/07/23 11:52:08;;;;;;;22.70;18.92;;;12.40;99.90;;;;;;5037010;28;20032;-77
2022/07/23 11:54:55;;;;;;;27.55;19.67;;;12.40;99.90;;;;;;5039463;28;20111;-86
2022/07/23 11:57:30;;;;;;;29.73;20.58;;;12.40;99.90;;;;;;5039174;28;20485;-79
2022/07/23 12:00:12;;;;;;;24.90;19.05;;;12.40;99.90;;;;;;5035307;28;20040;-82
2022/07/23 12:02:41;;;;;;;22.75;18.90;;;12.40;99.90;;;;;;5033978;28;20016;-82
2022/07/23 12:05:20;;;;;;;26.08;18.65;;;12.40;99.90;;;;;;5038086;28;20043;-81
2022/07/23 12:07:52;;;;;;;21.38;17.45;;;12.50;99.90;;;;;;5040769;28;20053;-78
2022/07/23 12:10:22;;;;;;;20.63;17.75;;;12.50;99.90;;;;;;5032528;28;20025;-80
2022/07/23 12:12:52;;;;;;;22.05;17.50;;;12.50;99.90;;;;;;5042781;28;20388;-80
2022/07/23 12:15:30;;;;;;;18.48;16.08;;;12.50;99.90;;;;;;5038914;28;20108;-81
2022/07/23 12:17:58;;;;;;;18.50;16.40;;;12.50;99.90;;;;;;5046093;28;20024;-81
2022/07/23 12:20:52;;;;;;;21.50;15.73;;;12.60;99.90;;;;;;5060577;28;20024;-79
2022/07/23 12:23:22;;;;;;;17.77;15.27;;;12.70;99.90;;;;;;5039395;28;20037;-79
2022/07/23 12:25:51;;;;;;;21.73;16.38;;;12.70;99.90;;;;;;5040641;28;20021;-79
2022/07/23 12:28:19;;;;;;;16.27;14.68;;;12.70;99.90;;;;;;5040056;28;20043;-80
2022/07/23 12:30:52;;;;;;;18.15;14.02;;;12.60;99.90;;;;;;5039733;28;20480;-80
2022/07/23 12:33:33;;;;;;;16.80;13.15;;;12.60;99.90;;;;;;5048033;28;20124;-80
2022/07/23 12:36:06;;;;;;;15.23;13.43;;;12.60;99.90;;;;;;5040356;28;20025;-79
2022/07/23 12:38:47;;;;;;;16.33;13.25;;;12.60;99.90;;;;;;5038119;28;20032;-81
2022/07/23 12:41:14;;;;;;;14.63;12.77;;;12.60;99.90;;;;;;5040519;28;20094;-80
2022/07/23 12:43:44;;;;;;;15.95;12.93;;;12.70;99.90;;;;;;5038169;28;20040;-79
2022/07/23 12:46:16;;;;;;;15.25;13.63;;;12.60;99.90;;;;;;5039272;28;20025;-81
2022/07/23 12:48:50;;;;;;;18.33;13.30;;;12.60;99.90;;;;;;5036526;28;20020;-81
2022/07/23 12:51:19;;;;;;;16.20;13.60;;;12.60;99.90;;;;;;5045187;28;20020;-80
2022/07/23 12:53:53;;;;;;;14.23;12.82;;;12.50;99.90;;;;;;5037694;28;20041;-79
2022/07/23 12:56:29;;;;;;;16.30;12.50;;;12.50;99.90;;;;;;5035966;28;20096;-80
2022/07/23 12:59:13;;;;;;;15.82;12.27;;;12.40;99.90;;;;;;5036456;28;20119;-79